Time;durP1;ratioP1;P1;durP2;ratioP2;P2;SDS_P1;SDS_P2;PMS_P1;PMS_P2;Temp;Humidity;BMP_temperature;BMP_pressure;BME280_temperature;BME280_humidity;BME280_pressure;Samples;Min_cycle;Max_cycle;Signal;HPM_P1;HPM_P2
2021/05/18 00:00:20;;;;;;;1999.90;999.90;;;12.10;99.90;;;;;;5048605;28;20446;-68
2021/05/18 00:02:46;;;;;;;1999.90;999.90;;;12.10;99.90;;;;;;5049822;28;20242;-67
2021/05/18 00:05:14;;;;;;;1999.90;999.90;;;12.00;99.90;;;;;;5041892;28;20419;-67
2021/05/18 00:07:46;;;;;;;1999.90;999.90;;;12.00;99.90;;;;;;5040243;28;20419;-68
2021/05/18 00:12:56;;;;;;;1999.90;999.90;;;12.00;99.90;;;;;;5047284;28;20527;-68
2021/05/18 00:15:22;;;;;;;1999.90;999.90;;;12.00;99.90;;;;;;5043559;28;20439;-68
2021/05/18 00:17:48;;;;;;;1999.90;999.90;;;12.10;99.90;;;;;;5037398;28;20192;-68
2021/05/18 00:20:16;;;;;;;1999.90;999.90;;;12.10;99.90;;;;;;5042806;28;20446;-68
2021/05/18 00:22:42;;;;;;;1999.90;999.90;;;12.10;99.90;;;;;;5038399;28;20959;-68
2021/05/18 00:25:09;;;;;;;1999.90;999.90;;;12.20;99.90;;;;;;5036018;28;20487;-68
2021/05/18 00:27:35;;;;;;;1999.90;999.90;;;12.20;99.90;;;;;;5035824;28;20400;-67
2021/05/18 00:30:02;;;;;;;1999.90;999.90;;;12.20;99.90;;;;;;5046478;28;20418;-68
2021/05/18 00:32:27;;;;;;;1999.90;999.90;;;12.20;99.90;;;;;;5041173;28;21314;-68
2021/05/18 00:34:55;;;;;;;1999.90;999.90;;;12.20;99.90;;;;;;5040076;28;20415;-67
2021/05/18 00:37:22;;;;;;;1999.90;999.90;;;12.10;99.90;;;;;;5037093;28;20200;-68
2021/05/18 00:39:48;;;;;;;1999.90;999.90;;;12.10;99.90;;;;;;5043331;28;20472;-67
2021/05/18 00:42:23;;;;;;;1999.90;999.90;;;12.00;99.90;;;;;;5046098;28;20447;-68
2021/05/18 00:44:50;;;;;;;1999.90;999.90;;;12.00;99.90;;;;;;5044721;28;20494;-68
2021/05/18 00:47:16;;;;;;;1999.90;999.90;;;12.00;99.90;;;;;;5040320;28;20518;-67
2021/05/18 00:49:42;;;;;;;1999.90;999.90;;;12.00;99.90;;;;;;5042582;28;20428;-67
2021/05/18 00:52:08;;;;;;;1999.90;999.90;;;12.00;99.90;;;;;;5044763;28;20490;-68
2021/05/18 00:54:57;;;;;;;1999.90;999.90;;;11.90;99.90;;;;;;5036992;28;20852;-68
2021/05/18 01:00:08;;;;;;;1999.90;999.90;;;11.90;99.90;;;;;;5019745;28;20468;-69
2021/05/18 01:02:33;;;;;;;1999.90;999.90;;;11.90;99.90;;;;;;5035680;28;20501;-68
2021/05/18 01:05:16;;;;;;;1999.90;999.90;;;11.90;99.90;;;;;;5030471;28;20462;-67
2021/05/18 01:07:42;;;;;;;1999.90;999.90;;;11.90;99.90;;;;;;5022964;28;20242;-67
2021/05/18 01:10:08;;;;;;;1999.90;999.90;;;11.90;99.90;;;;;;5032412;28;20434;-67
2021/05/18 01:12:34;;;;;;;1999.90;999.90;;;11.90;99.90;;;;;;5034426;28;20218;-68
2021/05/18 01:15:00;;;;;;;1999.90;999.90;;;11.90;99.90;;;;;;5029791;28;20446;-67
2021/05/18 01:17:26;;;;;;;1999.90;999.90;;;11.90;99.90;;;;;;5025327;28;20258;-68
2021/05/18 01:19:52;;;;;;;1999.90;999.90;;;11.90;99.90;;;;;;5031707;28;20212;-67
2021/05/18 01:22:18;;;;;;;1999.90;999.90;;;11.80;99.90;;;;;;5028748;28;20488;-67
2021/05/18 01:24:43;;;;;;;1999.90;999.90;;;11.60;99.90;;;;;;5031936;28;20187;-67
2021/05/18 01:27:09;;;;;;;1999.90;999.90;;;11.50;99.90;;;;;;5042424;28;20230;-66
2021/05/18 01:29:35;;;;;;;1999.90;999.90;;;11.40;99.90;;;;;;5016022;28;20204;-67
2021/05/18 01:32:02;;;;;;;1999.90;999.90;;;11.20;99.90;;;;;;5030601;28;20228;-67
2021/05/18 01:34:28;;;;;;;1999.90;999.90;;;11.10;99.90;;;;;;5037497;28;21101;-67
2021/05/18 01:36:54;;;;;;;1999.90;999.90;;;11.00;99.90;;;;;;5023958;28;20424;-67
2021/05/18 01:44:45;;;;;;;1999.90;999.90;;;11.00;99.90;;;;;;5007820;28;20196;-70
2021/05/18 01:47:12;;;;;;;1999.90;999.90;;;11.00;99.90;;;;;;5024379;28;20782;-68
2021/05/18 01:49:37;;;;;;;1999.90;999.90;;;11.00;99.90;;;;;;5029360;28;20675;-68
2021/05/18 01:52:04;;;;;;;1999.90;999.90;;;11.00;99.90;;;;;;5031904;28;20537;-68
2021/05/18 01:54:32;;;;;;;1999.90;999.90;;;11.00;99.90;;;;;;5037104;28;20205;-67
2021/05/18 01:59:30;;;;;;;1999.90;999.90;;;11.00;99.90;;;;;;5028485;28;20411;-67
2021/05/18 02:01:57;;;;;;;1999.90;999.90;;;11.10;99.90;;;;;;5029388;28;20462;-68
2021/05/18 02:04:35;;;;;;;1999.90;999.90;;;11.10;99.90;;;;;;5030725;28;20479;-67
2021/05/18 02:07:10;;;;;;;1999.90;999.90;;;11.10;99.90;;;;;;5024495;28;20481;-67
2021/05/18 02:09:37;;;;;;;1999.90;999.90;;;11.20;99.90;;;;;;5029144;28;20405;-67
2021/05/18 02:12:03;;;;;;;1999.90;999.90;;;11.20;99.90;;;;;;5030520;28;20442;-67
2021/05/18 02:14:29;;;;;;;1999.90;999.90;;;11.20;99.90;;;;;;5036546;28;20414;-67
2021/05/18 02:17:14;;;;;;;1999.90;999.90;;;11.20;99.90;;;;;;5023965;28;20978;-67
2021/05/18 02:19:56;;;;;;;1999.90;999.90;;;11.20;99.90;;;;;;5029677;28;20413;-67
2021/05/18 02:25:08;;;;;;;1999.90;999.90;;;11.20;99.90;;;;;;5026690;28;20478;-68
2021/05/18 02:27:34;;;;;;;1999.90;999.90;;;11.20;99.90;;;;;;5020798;28;20414;-67
2021/05/18 02:30:00;;;;;;;1999.90;999.90;;;11.20;99.90;;;;;;5030841;28;20524;-67
2021/05/18 02:32:27;;;;;;;1999.90;999.90;;;11.20;99.90;;;;;;5033490;28;20491;-68
2021/05/18 02:34:53;;;;;;;1999.90;999.90;;;11.20;99.90;;;;;;5029701;28;20413;-67
2021/05/18 02:37:19;;;;;;;1999.90;999.90;;;11.20;99.90;;;;;;5024462;28;20455;-68
2021/05/18 02:39:44;;;;;;;1999.90;999.90;;;11.20;99.90;;;;;;5030251;28;20185;-68
2021/05/18 02:42:10;;;;;;;1999.90;999.90;;;11.10;99.90;;;;;;5031182;28;20989;-67
2021/05/18 02:50:15;;;;;;;1999.90;999.90;;;11.10;99.90;;;;;;5035860;28;20424;-67
2021/05/18 02:52:42;;;;;;;1999.90;999.90;;;11.20;99.90;;;;;;5052114;28;20476;-67
2021/05/18 02:55:13;;;;;;;1999.90;999.90;;;11.20;99.90;;;;;;5048764;28;20187;-67
2021/05/18 02:57:39;;;;;;;1999.90;999.90;;;11.20;99.90;;;;;;5043100;28;20447;-67
2021/05/18 03:00:11;;;;;;;1999.90;999.90;;;11.20;99.90;;;;;;5049883;28;20512;-67
2021/05/18 03:02:37;;;;;;;1999.90;999.90;;;11.20;99.90;;;;;;5073674;22;20298;-69
2021/05/18 03:05:04;;;;;;;1999.90;999.90;;;11.10;99.90;;;;;;5021478;28;20514;-68
2021/05/18 03:07:29;;;;;;;1999.90;999.90;;;11.20;99.90;;;;;;5026576;28;20183;-67
2021/05/18 03:09:55;;;;;;;1999.90;999.90;;;11.20;99.90;;;;;;5027295;28;20407;-66
2021/05/18 03:12:21;;;;;;;1999.90;999.90;;;11.20;99.90;;;;;;5035440;28;20706;-67
2021/05/18 03:14:47;;;;;;;1999.90;999.90;;;11.20;99.90;;;;;;5046631;28;20176;-67
2021/05/18 03:17:12;;;;;;;1999.90;999.90;;;11.10;99.90;;;;;;5039131;28;20171;-68
2021/05/18 03:19:38;;;;;;;1999.90;999.90;;;11.20;99.90;;;;;;5024580;28;20168;-68
2021/05/18 03:22:04;;;;;;;1999.90;999.90;;;11.20;99.90;;;;;;5035472;28;20474;-67
2021/05/18 03:24:30;;;;;;;1999.90;999.90;;;11.10;99.90;;;;;;5048687;28;20449;-66
2021/05/18 03:26:56;;;;;;;1999.90;999.90;;;11.10;99.90;;;;;;5038148;28;20382;-66
2021/05/18 03:29:31;;;;;;;1999.90;999.90;;;11.10;99.90;;;;;;5026608;28;20419;-67
2021/05/18 03:34:42;;;;;;;1999.90;999.90;;;11.10;99.90;;;;;;5047268;28;20405;-65
2021/05/18 03:37:22;;;;;;;1999.90;999.90;;;11.10;99.90;;;;;;5038334;28;20414;-66
2021/05/18 03:39:50;;;;;;;1999.90;999.90;;;11.10;99.90;;;;;;5022794;28;20403;-66
2021/05/18 03:44:51;;;;;;;1999.90;999.90;;;11.20;99.90;;;;;;5046618;28;20413;-65
2021/05/18 04:03:41;;;;;;;1999.90;999.90;;;11.20;99.90;;;;;;5044604;28;20472;-65
2021/05/18 04:19:02;;;;;;;1999.90;999.90;;;11.30;99.90;;;;;;5021845;28;20439;-66
2021/05/18 04:48:50;;;;;;;1999.90;999.90;;;11.40;99.90;;;;;;5028989;28;20171;-66
2021/05/18 04:51:40;;;;;;;1999.90;999.90;;;11.40;99.90;;;;;;5026949;28;20832;-68
2021/05/18 05:07:12;;;;;;;1999.90;999.90;;;11.60;99.90;;;;;;5036619;28;20168;-69
2021/05/18 05:09:47;;;;;;;1999.90;999.90;;;11.60;99.90;;;;;;5023892;28;20967;-70
2021/05/18 05:14:47;;;;;;;1999.90;999.90;;;11.50;99.90;;;;;;5045381;28;20771;-68
2021/05/18 05:17:13;;;;;;;1999.90;999.90;;;11.40;99.90;;;;;;5037284;28;20416;-68
2021/05/18 05:19:39;;;;;;;1999.90;999.90;;;11.40;99.90;;;;;;5022659;28;20417;-67
2021/05/18 05:22:06;;;;;;;1999.90;999.90;;;11.40;99.90;;;;;;5033090;28;20445;-65
2021/05/18 05:24:33;;;;;;;1999.90;999.90;;;11.30;99.90;;;;;;5042066;28;20179;-66
2021/05/18 05:26:59;;;;;;;1999.90;999.90;;;11.20;99.90;;;;;;5036286;28;20533;-66
2021/05/18 05:29:25;;;;;;;1999.90;999.90;;;11.00;99.90;;;;;;5024396;28;20411;-67
2021/05/18 05:31:52;;;;;;;1999.90;999.90;;;11.00;99.90;;;;;;5029862;28;21315;-67
2021/05/18 05:34:18;;;;;;;1999.90;999.90;;;10.90;99.90;;;;;;5044001;28;20413;-64
2021/05/18 05:36:45;;;;;;;1999.90;999.90;;;10.80;99.90;;;;;;5036563;28;20476;-65
2021/05/18 05:39:20;;;;;;;1999.90;999.90;;;10.70;99.90;;;;;;5025726;28;20537;-67
2021/05/18 05:41:46;;;;;;;1999.90;999.90;;;10.80;99.90;;;;;;5028260;28;20437;-65
2021/05/18 05:44:12;;;;;;;1999.90;999.90;;;10.80;99.90;;;;;;5045729;28;20424;-67
2021/05/18 05:46:38;;;;;;;1999.90;999.90;;;10.80;99.90;;;;;;5037194;28;20416;-66
2021/05/18 05:49:04;;;;;;;1999.90;999.90;;;10.70;99.90;;;;;;5026498;28;20196;-67
2021/05/18 05:51:30;;;;;;;1999.90;999.90;;;10.70;99.90;;;;;;5025648;28;20421;-66
2021/05/18 05:53:59;;;;;;;1999.90;999.90;;;10.60;99.90;;;;;;5044659;28;20548;-65
2021/05/18 05:56:26;;;;;;;1999.90;999.90;;;10.60;99.90;;;;;;5039398;28;20414;-68
2021/05/18 05:58:52;;;;;;;1999.90;999.90;;;10.60;99.90;;;;;;5023936;28;20846;-69
2021/05/18 06:01:18;;;;;;;1999.90;999.90;;;10.60;99.90;;;;;;5034404;28;20867;-66
2021/05/18 06:03:44;;;;;;;1999.90;999.90;;;10.60;99.90;;;;;;5041812;28;20487;-67
2021/05/18 06:06:09;;;;;;;1999.90;999.90;;;10.60;99.90;;;;;;5027604;28;20414;-67
2021/05/18 06:08:38;;;;;;;1999.90;999.90;;;10.60;99.90;;;;;;5032324;28;20402;-65
2021/05/18 06:11:16;;;;;;;1999.90;999.90;;;10.60;99.90;;;;;;5022379;28;20225;-66
2021/05/18 06:43:54;;;;;;;1999.90;999.90;;;11.80;99.90;;;;;;5044577;28;20452;-67
2021/05/18 06:48:41;;;;;;;1999.90;999.90;;;12.00;99.90;;;;;;5034332;28;20411;-65
2021/05/18 06:51:07;;;;;;;1999.90;999.90;;;12.10;99.90;;;;;;5026102;28;21131;-66
2021/05/18 06:53:32;;;;;;;1999.90;999.90;;;12.10;99.90;;;;;;5045254;28;20446;-67
2021/05/18 06:55:59;;;;;;;1999.90;999.90;;;12.30;99.90;;;;;;5040773;28;20579;-64
2021/05/18 07:01:03;;;;;;;1999.90;999.90;;;12.60;99.90;;;;;;5025550;28;20781;-65
2021/05/18 07:03:35;;;;;;;1999.90;999.90;;;12.70;99.90;;;;;;5044855;28;20476;-64
2021/05/18 07:11:10;;;;;;;1999.90;999.90;;;12.70;99.90;;;;;;5026449;28;20434;-64
2021/05/18 07:13:36;;;;;;;1999.90;999.90;;;12.70;99.90;;;;;;5044769;28;20199;-64
2021/05/18 07:16:01;;;;;;;1999.90;999.90;;;12.70;99.90;;;;;;5040579;28;20175;-64
2021/05/18 07:18:27;;;;;;;1999.90;999.90;;;12.90;99.90;;;;;;5037136;28;20192;-65
2021/05/18 07:20:53;;;;;;;1999.90;999.90;;;13.00;99.90;;;;;;5023310;28;20168;-65
2021/05/18 07:23:22;;;;;;;1999.90;999.90;;;13.30;99.90;;;;;;5043800;28;20293;-67
2021/05/18 07:25:47;;;;;;;1999.90;999.90;;;13.60;99.90;;;;;;5039842;28;20178;-64
2021/05/18 07:28:15;;;;;;;1999.90;999.90;;;13.60;99.90;;;;;;5038781;28;20475;-65
2021/05/18 07:30:41;;;;;;;1999.90;999.90;;;13.70;99.90;;;;;;5023468;28;20544;-67
2021/05/18 07:33:07;;;;;;;1999.90;999.90;;;13.60;99.90;;;;;;5041815;28;20450;-65
2021/05/18 07:35:33;;;;;;;1999.90;999.90;;;13.50;99.90;;;;;;5040747;28;20169;-65
2021/05/18 07:37:59;;;;;;;1999.90;999.90;;;13.50;99.90;;;;;;5038509;28;20476;-65
2021/05/18 07:40:25;;;;;;;1999.90;999.90;;;13.50;99.90;;;;;;5022792;28;20506;-65
2021/05/18 07:42:51;;;;;;;1999.90;999.90;;;13.40;99.90;;;;;;5039726;28;20522;-65
2021/05/18 07:45:20;;;;;;;1999.90;999.90;;;13.40;99.90;;;;;;5043336;28;20626;-66
2021/05/18 07:47:46;;;;;;;1999.90;999.90;;;13.50;99.90;;;;;;5038176;28;20477;-65
2021/05/18 07:50:20;;;;;;;1999.90;999.90;;;13.40;99.90;;;;;;5020812;28;20414;-65
2021/05/18 08:06:10;;;;;;;1999.90;999.90;;;13.00;99.90;;;;;;5030121;28;20434;-68
2021/05/18 08:08:37;;;;;;;1999.90;999.90;;;13.00;99.90;;;;;;5034103;28;20458;-68
2021/05/18 08:11:03;;;;;;;1999.90;999.90;;;13.20;99.90;;;;;;5023748;28;20168;-64
2021/05/18 08:13:29;;;;;;;1999.90;999.90;;;13.30;99.90;;;;;;5044210;28;20528;-65
2021/05/18 10:38:43;;;;;;;1999.90;999.90;;;13.70;99.90;;;;;;5031996;28;20440;-67
2021/05/18 10:41:24;;;;;;;1999.90;999.90;;;13.80;99.90;;;;;;5002926;28;20411;-69
2021/05/18 10:44:00;;;;;;;1999.90;999.90;;;13.80;99.90;;;;;;5015663;28;20972;-69
2021/05/18 10:46:28;;;;;;;1999.90;999.90;;;13.90;99.90;;;;;;5017014;28;20424;-69
2021/05/18 10:49:13;;;;;;;1999.90;999.90;;;13.90;99.90;;;;;;5036751;28;20421;-68
2021/05/18 10:52:02;;;;;;;1999.90;999.90;;;13.80;99.90;;;;;;5015444;28;20418;-69
2021/05/18 10:54:39;;;;;;;1999.90;999.90;;;13.70;99.90;;;;;;5000729;28;20466;-68
2021/05/18 10:57:19;;;;;;;1999.90;999.90;;;13.70;99.90;;;;;;5022257;28;20815;-69
2021/05/18 10:59:59;;;;;;;1999.90;999.90;;;13.90;99.90;;;;;;5012890;28;20419;-68
2021/05/18 11:02:31;;;;;;;1999.90;999.90;;;14.40;99.90;;;;;;5009520;28;20449;-71
2021/05/18 11:05:08;;;;;;;1999.90;999.90;;;14.90;99.90;;;;;;5018692;28;20989;-69
2021/05/18 11:07:41;;;;;;;1999.90;999.90;;;15.50;99.90;;;;;;5017826;28;20426;-68
2021/05/18 11:10:17;;;;;;;1999.90;999.90;;;16.00;99.90;;;;;;5005112;28;20457;-68
2021/05/18 11:12:51;;;;;;;1999.90;999.90;;;16.00;99.90;;;;;;5014502;28;20447;-68
2021/05/18 11:15:19;;;;;;;1999.90;999.90;;;15.80;99.90;;;;;;5021622;28;20512;-68
2021/05/18 11:17:51;;;;;;;1999.90;999.90;;;15.00;99.90;;;;;;5019839;28;20461;-68
2021/05/18 11:20:35;;;;;;;1999.90;999.90;;;14.10;99.90;;;;;;5005760;28;20537;-66
2021/05/18 11:23:27;;;;;;;1999.90;999.90;;;13.60;99.90;;;;;;5017808;28;20441;-69
2021/05/18 11:26:00;;;;;;;1999.90;999.90;;;13.40;99.90;;;;;;5019304;28;20423;-68
2021/05/18 11:28:26;;;;;;;1999.90;999.90;;;13.50;99.90;;;;;;5018715;28;20414;-68
2021/05/18 11:30:58;;;;;;;1999.90;999.90;;;13.70;99.90;;;;;;5000936;28;20918;-67
2021/05/18 11:33:33;;;;;;;1999.90;999.90;;;14.10;99.90;;;;;;5014300;28;20196;-68
2021/05/18 11:36:25;;;;;;;1999.90;999.90;;;14.60;99.90;;;;;;5012095;28;20411;-68
2021/05/18 11:38:55;;;;;;;1999.90;999.90;;;14.90;99.90;;;;;;5018080;28;20846;-69
2021/05/18 11:41:24;;;;;;;1999.90;999.90;;;15.30;99.90;;;;;;5004997;28;20478;-68
2021/05/18 11:43:52;;;;;;;1999.90;999.90;;;15.70;99.90;;;;;;5010812;28;20434;-69
2021/05/18 11:46:18;;;;;;;1999.90;999.90;;;16.00;99.90;;;;;;5018540;28;20404;-67
2021/05/18 11:49:13;;;;;;;1999.90;999.90;;;16.20;99.90;;;;;;5018160;28;20429;-69
2021/05/18 11:51:53;;;;;;;1999.90;999.90;;;16.20;99.90;;;;;;5005333;28;20177;-68
2021/05/18 11:54:21;;;;;;;1999.90;999.90;;;16.20;99.90;;;;;;5017846;28;21016;-69
2021/05/18 11:56:48;;;;;;;1999.90;999.90;;;16.40;99.90;;;;;;5020443;28;20450;-68
2021/05/18 11:59:17;;;;;;;1999.90;999.90;;;16.70;99.90;;;;;;5017170;28;20990;-68
2021/05/18 12:01:56;;;;;;;1999.90;999.90;;;17.10;99.90;;;;;;5004759;28;20562;-68
2021/05/18 12:04:23;;;;;;;1999.90;999.90;;;17.60;99.90;;;;;;5016780;28;20470;-68
2021/05/18 12:07:00;;;;;;;1999.90;999.90;;;17.70;99.90;;;;;;5019947;28;20406;-69
2021/05/18 12:09:28;;;;;;;1999.90;999.90;;;17.80;99.90;;;;;;5015151;28;20415;-69
2021/05/18 12:11:55;;;;;;;1999.90;999.90;;;18.30;99.90;;;;;;5009389;28;20413;-70
2021/05/18 12:14:21;;;;;;;1999.90;999.90;;;19.20;99.90;;;;;;5019710;28;20447;-67
2021/05/18 12:16:46;;;;;;;1999.90;999.90;;;19.90;99.90;;;;;;5019729;28;20483;-69
2021/05/18 12:19:15;;;;;;;1999.90;999.90;;;20.50;99.90;;;;;;5017230;28;20448;-70
2021/05/18 12:21:44;;;;;;;1999.90;999.90;;;20.60;99.90;;;;;;5004157;28;20184;-68
2021/05/18 12:24:14;;;;;;;1999.90;999.90;;;19.90;99.90;;;;;;5017511;28;20473;-69
2021/05/18 12:26:49;;;;;;;1999.90;999.90;;;19.20;99.90;;;;;;5018541;28;20399;-69
2021/05/18 12:29:45;;;;;;;1999.90;999.90;;;19.20;99.90;;;;;;5015800;28;20410;-68
2021/05/18 12:32:20;;;;;;;1999.90;999.90;;;19.40;99.90;;;;;;5007336;28;20993;-68
2021/05/18 12:34:48;;;;;;;1999.90;999.90;;;19.50;99.90;;;;;;5020016;28;20422;-68
2021/05/18 12:37:14;;;;;;;1999.90;999.90;;;20.00;99.90;;;;;;5020751;28;20493;-67
2021/05/18 12:39:42;;;;;;;1999.90;999.90;;;20.10;99.90;;;;;;5010463;28;20452;-68
2021/05/18 12:42:23;;;;;;;1999.90;999.90;;;20.50;99.90;;;;;;5006692;28;20410;-68
2021/05/18 12:44:53;;;;;;;1999.90;999.90;;;20.50;99.90;;;;;;5017880;28;20525;-67
2021/05/18 12:47:29;;;;;;;1999.90;999.90;;;19.20;99.90;;;;;;5019819;28;20421;-67
2021/05/18 12:49:55;;;;;;;1999.90;999.90;;;18.40;99.90;;;;;;5003398;28;20466;-68
2021/05/18 12:52:21;;;;;;;1999.90;999.90;;;17.80;99.90;;;;;;5013830;28;20501;-68
2021/05/18 12:54:56;;;;;;;1999.90;999.90;;;17.60;99.90;;;;;;5018572;28;20493;-68
2021/05/18 12:57:28;;;;;;;1999.90;999.90;;;17.40;99.90;;;;;;5020857;28;20174;-68
2021/05/18 13:00:02;;;;;;;1999.90;999.90;;;17.50;99.90;;;;;;5003036;28;20413;-69
2021/05/18 13:02:37;;;;;;;1999.90;999.90;;;17.60;99.90;;;;;;5013830;28;20469;-69
2021/05/18 13:05:12;;;;;;;1999.90;999.90;;;18.00;99.90;;;;;;5016496;28;20412;-71
2021/05/18 13:07:40;;;;;;;1999.90;999.90;;;18.80;99.90;;;;;;5018585;28;20443;-71
2021/05/18 13:10:27;;;;;;;1999.90;999.90;;;19.20;99.90;;;;;;5005284;28;20419;-72
2021/05/18 13:13:03;;;;;;;1999.90;999.90;;;18.50;99.90;;;;;;5013814;28;20816;-70
2021/05/18 13:15:29;;;;;;;1999.90;999.90;;;17.60;99.90;;;;;;5019133;28;20456;-67
2021/05/18 13:17:58;;;;;;;1999.90;999.90;;;17.20;99.90;;;;;;5017417;28;20540;-68
2021/05/18 13:20:25;;;;;;;1999.90;999.90;;;17.30;99.90;;;;;;5002779;28;20164;-70
2021/05/18 13:22:58;;;;;;;1999.90;999.90;;;17.30;99.90;;;;;;5012822;28;20449;-70
2021/05/18 13:28:09;;;;;;;1999.90;999.90;;;18.20;99.90;;;;;;5017696;28;20416;-68
2021/05/18 13:30:37;;;;;;;1999.90;999.90;;;18.70;99.90;;;;;;5000657;28;20415;-68
2021/05/18 13:33:07;;;;;;;1999.90;999.90;;;18.60;99.90;;;;;;5015969;28;20446;-68
2021/05/18 13:35:33;;;;;;;1999.90;999.90;;;18.30;99.90;;;;;;5019117;28;21166;-68
2021/05/18 13:38:01;;;;;;;1999.90;999.90;;;18.40;99.90;;;;;;5016623;28;20514;-67
2021/05/18 13:40:28;;;;;;;1999.90;999.90;;;19.00;99.90;;;;;;5002497;28;20409;-68
2021/05/18 13:42:54;;;;;;;1999.90;999.90;;;19.80;99.90;;;;;;5013560;28;20467;-68
2021/05/18 13:45:27;;;;;;;1999.90;999.90;;;20.80;99.90;;;;;;5019581;28;20423;-67
2021/05/18 13:47:58;;;;;;;1999.90;999.90;;;21.60;99.90;;;;;;5009757;28;20899;-67
2021/05/18 13:50:25;;;;;;;1999.90;999.90;;;22.20;99.90;;;;;;5001695;28;20410;-66
2021/05/18 13:52:51;;;;;;;1999.90;999.90;;;22.70;99.90;;;;;;5012894;28;20440;-68
2021/05/18 13:55:17;;;;;;;1999.90;999.90;;;23.50;99.90;;;;;;5019323;28;20432;-68
2021/05/18 13:57:43;;;;;;;1999.90;999.90;;;24.40;99.90;;;;;;5017463;28;20191;-68
2021/05/18 14:00:13;;;;;;;1999.90;999.90;;;24.20;99.90;;;;;;5004153;28;21299;-69
2021/05/18 14:02:41;;;;;;;1999.90;999.90;;;23.40;99.90;;;;;;5009278;28;20451;-69
2021/05/18 14:05:13;;;;;;;1999.90;999.90;;;22.40;99.90;;;;;;5018060;28;20889;-68
2021/05/18 14:10:39;;;;;;;1999.90;999.90;;;21.40;99.90;;;;;;4999583;28;20416;-68
2021/05/18 14:13:05;;;;;;;1999.90;999.90;;;21.20;99.90;;;;;;5015381;28;20450;-68
2021/05/18 14:15:31;;;;;;;1999.90;999.90;;;20.80;99.90;;;;;;5018569;28;20198;-68
2021/05/18 14:17:56;;;;;;;1999.90;999.90;;;20.70;99.90;;;;;;5016501;28;20350;-68
2021/05/18 14:20:22;;;;;;;1999.90;999.90;;;20.30;99.90;;;;;;5001956;28;20268;-68
2021/05/18 14:22:48;;;;;;;1999.90;999.90;;;19.90;99.90;;;;;;5011116;28;20203;-67
2021/05/18 14:25:13;;;;;;;1999.90;999.90;;;19.70;99.90;;;;;;5026212;28;20173;-68
2021/05/18 14:27:40;;;;;;;1999.90;999.90;;;19.20;99.90;;;;;;5017223;28;20175;-68
2021/05/18 14:30:08;;;;;;;1999.90;999.90;;;18.70;99.90;;;;;;5004328;28;20190;-68
2021/05/18 14:32:36;;;;;;;1999.90;999.90;;;18.50;99.90;;;;;;5008219;28;20431;-67
2021/05/18 14:35:05;;;;;;;1999.90;999.90;;;18.20;99.90;;;;;;5015406;28;20404;-67
2021/05/18 14:37:31;;;;;;;1999.90;999.90;;;17.80;99.90;;;;;;5018720;28;20403;-67
2021/05/18 14:40:07;;;;;;;1999.90;999.90;;;17.50;99.90;;;;;;5005590;28;20408;-68
2021/05/18 14:45:19;;;;;;;1999.90;999.90;;;17.10;99.90;;;;;;5021398;28;20418;-67
2021/05/18 14:56:05;;;;;;;1999.90;999.90;;;21.50;99.90;;;;;;5020297;28;20413;-66
2021/05/18 14:58:31;;;;;;;1999.90;999.90;;;22.80;99.90;;;;;;5019145;28;20455;-66
2021/05/18 15:00:57;;;;;;;1999.90;999.90;;;23.80;99.90;;;;;;5002188;28;20401;-66
2021/05/18 15:03:22;;;;;;;1999.90;999.90;;;24.60;99.90;;;;;;5021203;28;20437;-66
2021/05/18 15:05:48;;;;;;;1999.90;999.90;;;24.90;99.90;;;;;;5027038;28;20231;-66
2021/05/18 15:08:14;;;;;;;1999.90;999.90;;;24.70;99.90;;;;;;5022296;28;20201;-66
2021/05/18 15:10:40;;;;;;;1999.90;999.90;;;24.30;99.90;;;;;;5028755;28;20185;-66
2021/05/18 15:13:06;;;;;;;1999.90;999.90;;;23.40;99.90;;;;;;5019000;28;20199;-68
2021/05/18 15:15:32;;;;;;;1999.90;999.90;;;22.60;99.90;;;;;;5013310;28;20390;-68
2021/05/18 15:17:58;;;;;;;1999.90;999.90;;;21.80;99.90;;;;;;4996010;28;20200;-67
2021/05/18 15:20:25;;;;;;;1999.90;999.90;;;21.40;99.90;;;;;;4993533;28;20173;-66
2021/05/18 15:22:51;;;;;;;1999.90;999.90;;;21.10;99.90;;;;;;4993444;28;20401;-68
2021/05/18 15:25:18;;;;;;;1999.90;999.90;;;20.90;99.90;;;;;;4992333;28;20416;-67
2021/05/18 15:27:44;;;;;;;1999.90;999.90;;;20.70;99.90;;;;;;4994628;28;20440;-68
2021/05/18 15:30:13;;;;;;;1999.90;999.90;;;20.30;99.90;;;;;;4997872;28;20421;-66
2021/05/18 15:32:38;;;;;;;1999.90;999.90;;;20.20;99.90;;;;;;4995483;28;20435;-68
2021/05/18 15:35:06;;;;;;;1999.90;999.90;;;20.00;99.90;;;;;;4995450;28;20413;-68
2021/05/18 15:37:32;;;;;;;1999.90;999.90;;;19.90;99.90;;;;;;4996541;28;20173;-70
2021/05/18 15:39:58;;;;;;;1999.90;999.90;;;19.80;99.90;;;;;;4994367;28;20526;-70
2021/05/18 15:42:24;;;;;;;1999.90;999.90;;;19.80;99.90;;;;;;4993072;28;20538;-68
2021/05/18 15:44:50;;;;;;;1999.90;999.90;;;20.00;99.90;;;;;;4992260;28;20180;-72
2021/05/18 15:47:16;;;;;;;1999.90;999.90;;;20.70;99.90;;;;;;4992548;28;20421;-72
2021/05/18 15:49:42;;;;;;;1999.90;999.90;;;21.70;99.90;;;;;;4992624;28;20530;-72
2021/05/18 15:52:07;;;;;;;1999.90;999.90;;;22.30;99.90;;;;;;4992812;28;20229;-70
2021/05/18 15:54:33;;;;;;;1999.90;999.90;;;22.50;99.90;;;;;;4992980;28;20579;-70
2021/05/18 15:56:59;;;;;;;1999.90;999.90;;;21.80;99.90;;;;;;4992008;28;20181;-74
2021/05/18 15:59:26;;;;;;;1999.90;999.90;;;21.30;99.90;;;;;;4992827;28;20192;-74
2021/05/18 16:01:52;;;;;;;1999.90;999.90;;;20.70;99.90;;;;;;4994640;28;20408;-74
2021/05/18 16:04:18;;;;;;;1999.90;999.90;;;20.20;99.90;;;;;;4992749;28;20459;-74
2021/05/18 16:06:44;;;;;;;1999.90;999.90;;;19.90;99.90;;;;;;4992741;28;20426;-74
2021/05/18 16:09:11;;;;;;;1999.90;999.90;;;19.60;99.90;;;;;;4992952;28;20848;-74
2021/05/18 16:11:37;;;;;;;1999.90;999.90;;;19.30;99.90;;;;;;4992013;28;20198;-75
2021/05/18 16:14:04;;;;;;;1999.90;999.90;;;19.30;99.90;;;;;;4992451;28;20439;-74
2021/05/18 16:16:30;;;;;;;1999.90;999.90;;;19.20;99.90;;;;;;4992329;28;20442;-74
2021/05/18 16:18:55;;;;;;;1999.90;999.90;;;19.10;99.90;;;;;;4991074;28;20462;-74
2021/05/18 16:21:23;;;;;;;1999.90;999.90;;;19.00;99.90;;;;;;4993764;28;20662;-69
2021/05/18 16:23:51;;;;;;;1999.90;999.90;;;19.00;99.90;;;;;;4995979;28;20433;-68
2021/05/18 16:26:18;;;;;;;1999.90;999.90;;;19.00;99.90;;;;;;4995392;28;20423;-69
2021/05/18 16:28:45;;;;;;;1999.90;999.90;;;18.90;99.90;;;;;;4995915;28;20448;-71
2021/05/18 16:31:11;;;;;;;1999.90;999.90;;;18.60;99.90;;;;;;4992493;28;20413;-70
2021/05/18 16:33:38;;;;;;;1999.90;999.90;;;18.50;99.90;;;;;;4994261;28;20904;-70
2021/05/18 16:36:05;;;;;;;1999.90;999.90;;;18.50;99.90;;;;;;4993130;28;20409;-71
2021/05/18 16:38:32;;;;;;;1999.90;999.90;;;18.40;99.90;;;;;;4994062;28;20980;-70
2021/05/18 16:40:58;;;;;;;1999.90;999.90;;;18.40;99.90;;;;;;4993489;28;20420;-71
2021/05/18 16:43:25;;;;;;;1999.90;999.90;;;18.20;99.90;;;;;;4994063;28;20433;-70
2021/05/18 16:45:52;;;;;;;1999.90;999.90;;;18.20;99.90;;;;;;4993425;28;20686;-70
2021/05/18 16:48:19;;;;;;;1999.90;999.90;;;18.10;99.90;;;;;;4993664;28;20420;-70
2021/05/18 16:50:45;;;;;;;1999.90;999.90;;;18.00;99.90;;;;;;4994478;28;20423;-69
2021/05/18 16:53:11;;;;;;;1999.90;999.90;;;17.70;99.90;;;;;;5001286;28;20440;-70
2021/05/18 16:55:38;;;;;;;1999.90;999.90;;;17.70;99.90;;;;;;5001360;28;20420;-71
2021/05/18 16:58:04;;;;;;;1999.90;999.90;;;17.70;99.90;;;;;;4993629;28;20466;-68
2021/05/18 17:00:30;;;;;;;1999.90;999.90;;;17.50;99.90;;;;;;4992584;28;20895;-68
2021/05/18 17:02:56;;;;;;;1999.90;999.90;;;17.50;99.90;;;;;;4992268;28;20547;-66
2021/05/18 17:05:26;;;;;;;1999.90;999.90;;;17.50;99.90;;;;;;4990602;28;20468;-68
2021/05/18 17:07:52;;;;;;;1999.90;999.90;;;18.20;99.90;;;;;;4990184;28;20431;-69
2021/05/18 17:10:20;;;;;;;1999.90;999.90;;;19.50;99.90;;;;;;4990762;28;20419;-67
2021/05/18 17:12:46;;;;;;;1999.90;999.90;;;20.50;99.90;;;;;;4991325;28;20911;-66
2021/05/18 17:15:12;;;;;;;1999.90;999.90;;;20.60;99.90;;;;;;4991119;28;20512;-68
2021/05/18 17:17:38;;;;;;;1999.90;999.90;;;20.20;99.90;;;;;;4991089;28;20787;-67